sensor_id;sensor_type;location;lat;lon;timestamp;pressure;altitude;pressure_sealevel;temperature;humidity
47592;BME280;33317;33.356;-117.184;2023-06-24T00:00:06;99219.20;;;16.60;52.67
47592;BME280;33317;33.356;-117.184;2023-06-24T00:02:34;99208.08;;;16.91;50.19
47592;BME280;33317;33.356;-117.184;2023-06-24T00:05:03;99205.32;;;17.13;51.05
47592;BME280;33317;33.356;-117.184;2023-06-24T00:07:31;99204.90;;;17.40;50.27
47592;BME280;33317;33.356;-117.184;2023-06-24T00:10:00;99201.60;;;16.63;52.28
47592;BME280;33317;33.356;-117.184;2023-06-24T00:12:28;99201.70;;;17.10;51.99
47592;BME280;33317;33.356;-117.184;2023-06-24T00:14:56;99203.65;;;16.44;52.26
47592;BME280;33317;33.356;-117.184;2023-06-24T00:17:25;99199.08;;;16.66;51.22
47592;BME280;33317;33.356;-117.184;2023-06-24T00:19:53;99200.41;;;16.86;52.04
47592;BME280;33317;33.356;-117.184;2023-06-24T00:22:22;99196.07;;;17.36;50.47
47592;BME280;33317;33.356;-117.184;2023-06-24T00:24:50;99191.71;;;16.96;51.57
47592;BME280;33317;33.356;-117.184;2023-06-24T00:27:18;99186.69;;;17.22;51.10
47592;BME280;33317;33.356;-117.184;2023-06-24T00:29:47;99178.30;;;18.15;48.27
47592;BME280;33317;33.356;-117.184;2023-06-24T00:32:15;99176.74;;;17.54;49.11
47592;BME280;33317;33.356;-117.184;2023-06-24T00:34:43;99170.98;;;18.69;46.39
47592;BME280;33317;33.356;-117.184;2023-06-24T00:37:12;99171.27;;;17.99;48.70
47592;BME280;33317;33.356;-117.184;2023-06-24T00:39:40;99173.01;;;17.37;49.84
47592;BME280;33317;33.356;-117.184;2023-06-24T00:42:08;99171.61;;;17.45;50.29
47592;BME280;33317;33.356;-117.184;2023-06-24T00:44:36;99164.89;;;18.08;48.65
47592;BME280;33317;33.356;-117.184;2023-06-24T00:47:06;99170.21;;;17.34;49.65
47592;BME280;33317;33.356;-117.184;2023-06-24T00:49:34;99172.59;;;17.59;48.66
47592;BME280;33317;33.356;-117.184;2023-06-24T00:52:03;99170.59;;;20.08;43.59
47592;BME280;33317;33.356;-117.184;2023-06-24T00:54:32;99176.08;;;17.28;49.30
47592;BME280;33317;33.356;-117.184;2023-06-24T00:57:01;99177.36;;;16.44;52.03
47592;BME280;33317;33.356;-117.184;2023-06-24T00:59:29;99171.35;;;16.63;52.38
47592;BME280;33317;33.356;-117.184;2023-06-24T01:01:57;99173.47;;;17.50;49.95
47592;BME280;33317;33.356;-117.184;2023-06-24T01:04:26;99175.56;;;16.86;51.58
47592;BME280;33317;33.356;-117.184;2023-06-24T01:06:56;99181.38;;;16.26;53.44
47592;BME280;33317;33.356;-117.184;2023-06-24T01:09:26;99182.24;;;16.28;53.65
47592;BME280;33317;33.356;-117.184;2023-06-24T01:11:55;99180.63;;;16.89;52.50
47592;BME280;33317;33.356;-117.184;2023-06-24T01:14:24;99182.72;;;16.56;51.95
47592;BME280;33317;33.356;-117.184;2023-06-24T01:16:58;99183.64;;;16.65;51.80
47592;BME280;33317;33.356;-117.184;2023-06-24T01:19:44;99190.27;;;16.22;53.55
47592;BME280;33317;33.356;-117.184;2023-06-24T01:22:34;99193.04;;;16.09;54.12
47592;BME280;33317;33.356;-117.184;2023-06-24T01:25:13;99191.20;;;16.69;52.90
47592;BME280;33317;33.356;-117.184;2023-06-24T01:28:04;99193.83;;;16.87;51.81
47592;BME280;33317;33.356;-117.184;2023-06-24T01:30:55;99199.73;;;17.05;51.39
47592;BME280;33317;33.356;-117.184;2023-06-24T01:33:36;99199.51;;;16.84;51.39
47592;BME280;33317;33.356;-117.184;2023-06-24T01:36:10;99201.12;;;16.71;51.35
47592;BME280;33317;33.356;-117.184;2023-06-24T01:38:45;99204.85;;;16.14;54.55
47592;BME280;33317;33.356;-117.184;2023-06-24T01:41:21;99212.89;;;15.69;55.52
47592;BME280;33317;33.356;-117.184;2023-06-24T01:43:52;99214.91;;;15.51;55.68
47592;BME280;33317;33.356;-117.184;2023-06-24T01:46:22;99214.37;;;16.88;52.71
47592;BME280;33317;33.356;-117.184;2023-06-24T01:48:54;99217.08;;;17.01;50.93
47592;BME280;33317;33.356;-117.184;2023-06-24T01:51:25;99219.13;;;15.81;54.34
47592;BME280;33317;33.356;-117.184;2023-06-24T01:54:00;99221.63;;;16.10;53.60
47592;BME280;33317;33.356;-117.184;2023-06-24T01:56:31;99229.32;;;15.18;56.65
47592;BME280;33317;33.356;-117.184;2023-06-24T01:59:02;99232.14;;;15.60;56.48
47592;BME280;33317;33.356;-117.184;2023-06-24T02:01:32;99229.66;;;15.57;55.54
47592;BME280;33317;33.356;-117.184;2023-06-24T02:04:04;99229.46;;;16.80;50.90
47592;BME280;33317;33.356;-117.184;2023-06-24T02:06:36;99233.38;;;14.74;56.33
47592;BME280;33317;33.356;-117.184;2023-06-24T02:09:06;99236.26;;;15.54;55.23
47592;BME280;33317;33.356;-117.184;2023-06-24T02:11:36;99237.83;;;15.24;55.89
47592;BME280;33317;33.356;-117.184;2023-06-24T02:14:05;99242.54;;;15.17;56.69
47592;BME280;33317;33.356;-117.184;2023-06-24T02:16:34;99244.59;;;15.91;54.38
47592;BME280;33317;33.356;-117.184;2023-06-24T02:19:04;99245.03;;;16.13;53.05
47592;BME280;33317;33.356;-117.184;2023-06-24T02:21:35;99246.27;;;15.82;53.81
47592;BME280;33317;33.356;-117.184;2023-06-24T02:24:05;99250.19;;;16.01;53.73
47592;BME280;33317;33.356;-117.184;2023-06-24T02:26:34;99251.96;;;14.93;56.30
47592;BME280;33317;33.356;-117.184;2023-06-24T02:29:04;99252.25;;;15.06;56.02
47592;BME280;33317;33.356;-117.184;2023-06-24T02:31:32;99259.87;;;16.17;54.61
47592;BME280;33317;33.356;-117.184;2023-06-24T02:34:01;99254.48;;;20.22;44.74
47592;BME280;33317;33.356;-117.184;2023-06-24T02:36:29;99254.99;;;22.76;39.08
47592;BME280;33317;33.356;-117.184;2023-06-24T02:38:57;99250.84;;;24.36;35.82
47592;BME280;33317;33.356;-117.184;2023-06-24T02:41:27;99251.71;;;25.18;33.75
47592;BME280;33317;33.356;-117.184;2023-06-24T02:43:55;99251.56;;;26.59;31.99
47592;BME280;33317;33.356;-117.184;2023-06-24T02:46:25;99258.26;;;27.47;30.88
47592;BME280;33317;33.356;-117.184;2023-06-24T02:48:54;99260.65;;;27.63;29.94
47592;BME280;33317;33.356;-117.184;2023-06-24T02:51:26;99258.34;;;27.72;29.54
47592;BME280;33317;33.356;-117.184;2023-06-24T02:53:56;99253.09;;;28.29;28.99
47592;BME280;33317;33.356;-117.184;2023-06-24T02:56:26;99254.71;;;27.83;29.07
47592;BME280;33317;33.356;-117.184;2023-06-24T02:58:55;99257.71;;;28.23;29.17
47592;BME280;33317;33.356;-117.184;2023-06-24T03:01:23;99259.32;;;28.14;29.03
47592;BME280;33317;33.356;-117.184;2023-06-24T03:03:54;99262.16;;;28.10;28.87
47592;BME280;33317;33.356;-117.184;2023-06-24T03:06:24;99263.10;;;28.11;28.76
47592;BME280;33317;33.356;-117.184;2023-06-24T03:08:53;99265.13;;;28.13;28.72
47592;BME280;33317;33.356;-117.184;2023-06-24T03:11:21;99265.68;;;28.07;28.76
47592;BME280;33317;33.356;-117.184;2023-06-24T03:13:50;99270.55;;;28.30;28.56
47592;BME280;33317;33.356;-117.184;2023-06-24T03:16:19;99276.00;;;28.29;28.56
47592;BME280;33317;33.356;-117.184;2023-06-24T03:18:48;99279.44;;;28.21;28.64
47592;BME280;33317;33.356;-117.184;2023-06-24T03:21:16;99277.89;;;28.32;28.42
47592;BME280;33317;33.356;-117.184;2023-06-24T03:23:45;99278.52;;;28.50;28.47
47592;BME280;33317;33.356;-117.184;2023-06-24T03:26:14;99279.55;;;28.34;28.50
47592;BME280;33317;33.356;-117.184;2023-06-24T03:28:42;99284.56;;;28.58;28.16
47592;BME280;33317;33.356;-117.184;2023-06-24T03:31:11;99287.07;;;29.06;28.09
47592;BME280;33317;33.356;-117.184;2023-06-24T03:33:39;99292.19;;;28.52;28.20
47592;BME280;33317;33.356;-117.184;2023-06-24T03:36:08;99292.62;;;28.42;28.28
47592;BME280;33317;33.356;-117.184;2023-06-24T03:38:37;99292.77;;;28.47;28.26
47592;BME280;33317;33.356;-117.184;2023-06-24T03:41:05;99294.73;;;28.60;28.14
47592;BME280;33317;33.356;-117.184;2023-06-24T03:43:34;99297.33;;;28.52;28.04
47592;BME280;33317;33.356;-117.184;2023-06-24T03:46:02;99301.57;;;28.32;28.23
47592;BME280;33317;33.356;-117.184;2023-06-24T03:48:30;99305.28;;;28.76;27.46
47592;BME280;33317;33.356;-117.184;2023-06-24T03:50:59;99302.97;;;28.51;27.62
47592;BME280;33317;33.356;-117.184;2023-06-24T03:53:28;99304.04;;;28.74;27.31
47592;BME280;33317;33.356;-117.184;2023-06-24T03:55:56;99305.17;;;28.82;27.33
47592;BME280;33317;33.356;-117.184;2023-06-24T03:58:24;99305.59;;;28.65;27.18
47592;BME280;33317;33.356;-117.184;2023-06-24T04:00:53;99303.51;;;28.70;27.08
47592;BME280;33317;33.356;-117.184;2023-06-24T04:03:24;99303.84;;;28.71;26.92
47592;BME280;33317;33.356;-117.184;2023-06-24T04:05:55;99306.16;;;28.71;26.75
47592;BME280;33317;33.356;-117.184;2023-06-24T04:08:25;99307.01;;;28.92;26.67
47592;BME280;33317;33.356;-117.184;2023-06-24T04:10:54;99309.75;;;28.74;26.60
47592;BME280;33317;33.356;-117.184;2023-06-24T04:13:23;99308.61;;;28.95;26.66
47592;BME280;33317;33.356;-117.184;2023-06-24T04:15:52;99311.25;;;28.78;26.73
47592;BME280;33317;33.356;-117.184;2023-06-24T04:18:20;99314.10;;;28.62;27.00
47592;BME280;33317;33.356;-117.184;2023-06-24T04:20:50;99324.84;;;28.23;27.36
47592;BME280;33317;33.356;-117.184;2023-06-24T04:23:19;99331.53;;;28.36;27.51
47592;BME280;33317;33.356;-117.184;2023-06-24T04:25:49;99335.37;;;27.78;27.81
47592;BME280;33317;33.356;-117.184;2023-06-24T04:28:17;99339.92;;;27.86;27.76
47592;BME280;33317;33.356;-117.184;2023-06-24T04:30:47;99337.65;;;28.08;27.99
47592;BME280;33317;33.356;-117.184;2023-06-24T04:33:17;99338.85;;;27.81;28.28
47592;BME280;33317;33.356;-117.184;2023-06-24T04:35:45;99338.72;;;27.89;28.23
47592;BME280;33317;33.356;-117.184;2023-06-24T04:38:13;99338.79;;;27.50;28.42
47592;BME280;33317;33.356;-117.184;2023-06-24T04:40:42;99340.57;;;27.75;28.38
47592;BME280;33317;33.356;-117.184;2023-06-24T04:43:11;99344.05;;;27.84;28.61
47592;BME280;33317;33.356;-117.184;2023-06-24T04:45:41;99343.58;;;27.55;28.64
47592;BME280;33317;33.356;-117.184;2023-06-24T04:48:10;99345.18;;;27.61;28.56
47592;BME280;33317;33.356;-117.184;2023-06-24T04:50:38;99345.67;;;26.74;29.45
47592;BME280;33317;33.356;-117.184;2023-06-24T04:53:07;99348.37;;;27.43;28.79
47592;BME280;33317;33.356;-117.184;2023-06-24T04:55:35;99354.33;;;27.10;28.88
47592;BME280;33317;33.356;-117.184;2023-06-24T04:58:04;99355.39;;;27.14;29.05
47592;BME280;33317;33.356;-117.184;2023-06-24T05:00:35;99359.49;;;27.48;29.01
47592;BME280;33317;33.356;-117.184;2023-06-24T05:03:06;99358.33;;;26.99;29.24
47592;BME280;33317;33.356;-117.184;2023-06-24T05:05:35;99359.67;;;27.26;28.93
47592;BME280;33317;33.356;-117.184;2023-06-24T05:08:03;99359.74;;;27.04;29.12
47592;BME280;33317;33.356;-117.184;2023-06-24T05:10:31;99360.24;;;26.61;29.53
47592;BME280;33317;33.356;-117.184;2023-06-24T05:13:00;99361.43;;;26.73;29.44
47592;BME280;33317;33.356;-117.184;2023-06-24T05:15:28;99358.72;;;26.66;29.54
47592;BME280;33317;33.356;-117.184;2023-06-24T05:17:56;99356.02;;;26.40;29.78
47592;BME280;33317;33.356;-117.184;2023-06-24T05:20:25;99356.95;;;26.92;29.55
47592;BME280;33317;33.356;-117.184;2023-06-24T05:22:53;99355.58;;;26.60;29.59
47592;BME280;33317;33.356;-117.184;2023-06-24T05:25:22;99355.06;;;26.68;29.45
47592;BME280;33317;33.356;-117.184;2023-06-24T05:27:52;99353.33;;;26.81;29.35
47592;BME280;33317;33.356;-117.184;2023-06-24T05:30:22;99354.18;;;26.36;29.79
47592;BME280;33317;33.356;-117.184;2023-06-24T05:32:51;99357.43;;;26.83;29.57
47592;BME280;33317;33.356;-117.184;2023-06-24T05:35:21;99356.81;;;26.50;29.62
47592;BME280;33317;33.356;-117.184;2023-06-24T05:37:49;99357.47;;;26.61;29.75
47592;BME280;33317;33.356;-117.184;2023-06-24T05:40:18;99360.80;;;26.46;29.95
47592;BME280;33317;33.356;-117.184;2023-06-24T05:42:46;99363.76;;;26.64;29.79
47592;BME280;33317;33.356;-117.184;2023-06-24T05:45:14;99366.94;;;26.67;29.78
47592;BME280;33317;33.356;-117.184;2023-06-24T05:47:43;99367.99;;;26.58;29.65
47592;BME280;33317;33.356;-117.184;2023-06-24T05:50:11;99371.49;;;25.95;30.27
47592;BME280;33317;33.356;-117.184;2023-06-24T05:52:39;99363.67;;;26.35;30.01
47592;BME280;33317;33.356;-117.184;2023-06-24T05:55:08;99363.03;;;26.74;29.53
47592;BME280;33317;33.356;-117.184;2023-06-24T05:57:37;99360.17;;;26.44;29.82
47592;BME280;33317;33.356;-117.184;2023-06-24T06:00:06;99361.96;;;26.65;29.62
47592;BME280;33317;33.356;-117.184;2023-06-24T06:02:35;99365.45;;;26.75;29.49
47592;BME280;33317;33.356;-117.184;2023-06-24T06:05:04;99366.93;;;26.45;29.72
47592;BME280;33317;33.356;-117.184;2023-06-24T06:07:32;99369.68;;;26.20;30.25
47592;BME280;33317;33.356;-117.184;2023-06-24T06:10:02;99368.60;;;26.31;30.11
47592;BME280;33317;33.356;-117.184;2023-06-24T06:12:30;99369.44;;;26.52;29.86
47592;BME280;33317;33.356;-117.184;2023-06-24T06:15:00;99370.56;;;26.44;29.92
47592;BME280;33317;33.356;-117.184;2023-06-24T06:17:28;99363.96;;;26.46;29.87
47592;BME280;33317;33.356;-117.184;2023-06-24T06:19:56;99366.16;;;26.03;30.09
47592;BME280;33317;33.356;-117.184;2023-06-24T06:22:25;99366.05;;;25.75;30.56
47592;BME280;33317;33.356;-117.184;2023-06-24T06:24:53;99364.33;;;26.12;30.20
47592;BME280;33317;33.356;-117.184;2023-06-24T06:27:21;99363.83;;;25.62;30.75
47592;BME280;33317;33.356;-117.184;2023-06-24T06:29:51;99357.71;;;25.57;30.83
47592;BME280;33317;33.356;-117.184;2023-06-24T06:32:19;99355.94;;;25.38;30.86
47592;BME280;33317;33.356;-117.184;2023-06-24T06:34:47;99358.51;;;25.23;31.28
47592;BME280;33317;33.356;-117.184;2023-06-24T06:37:16;99355.39;;;25.41;31.50
47592;BME280;33317;33.356;-117.184;2023-06-24T06:39:44;99349.06;;;25.48;31.14
47592;BME280;33317;33.356;-117.184;2023-06-24T06:42:13;99344.96;;;25.51;31.26
47592;BME280;33317;33.356;-117.184;2023-06-24T06:44:41;99346.46;;;25.21;31.60
47592;BME280;33317;33.356;-117.184;2023-06-24T06:47:10;99347.69;;;25.32;31.54
47592;BME280;33317;33.356;-117.184;2023-06-24T06:49:39;99344.99;;;24.92;32.07
47592;BME280;33317;33.356;-117.184;2023-06-24T06:52:08;99340.09;;;24.94;31.92
47592;BME280;33317;33.356;-117.184;2023-06-24T06:54:36;99333.64;;;25.35;31.54
47592;BME280;33317;33.356;-117.184;2023-06-24T06:57:05;99332.87;;;24.87;32.11
47592;BME280;33317;33.356;-117.184;2023-06-24T06:59:34;99332.06;;;25.36;31.81
47592;BME280;33317;33.356;-117.184;2023-06-24T07:02:02;99329.24;;;25.46;31.75
47592;BME280;33317;33.356;-117.184;2023-06-24T07:04:30;99331.40;;;25.01;31.97
47592;BME280;33317;33.356;-117.184;2023-06-24T07:06:59;99330.15;;;24.71;32.39
47592;BME280;33317;33.356;-117.184;2023-06-24T07:09:27;99327.12;;;24.78;32.59
47592;BME280;33317;33.356;-117.184;2023-06-24T07:11:55;99324.22;;;24.60;32.51
47592;BME280;33317;33.356;-117.184;2023-06-24T07:14:24;99327.77;;;25.04;32.09
47592;BME280;33317;33.356;-117.184;2023-06-24T07:16:52;99330.31;;;25.22;32.17
47592;BME280;33317;33.356;-117.184;2023-06-24T07:19:21;99328.67;;;24.48;32.73
47592;BME280;33317;33.356;-117.184;2023-06-24T07:21:51;99331.36;;;24.68;32.61
47592;BME280;33317;33.356;-117.184;2023-06-24T07:24:19;99326.42;;;24.96;32.56
47592;BME280;33317;33.356;-117.184;2023-06-24T07:26:47;99324.45;;;24.56;32.67
47592;BME280;33317;33.356;-117.184;2023-06-24T07:29:16;99328.17;;;24.80;32.67
47592;BME280;33317;33.356;-117.184;2023-06-24T07:31:44;99320.91;;;24.36;32.83
47592;BME280;33317;33.356;-117.184;2023-06-24T07:34:13;99314.59;;;24.63;32.90
47592;BME280;33317;33.356;-117.184;2023-06-24T07:36:41;99307.93;;;24.27;32.95
47592;BME280;33317;33.356;-117.184;2023-06-24T07:39:09;99306.15;;;24.38;32.81
47592;BME280;33317;33.356;-117.184;2023-06-24T07:41:38;99302.01;;;24.62;33.12
47592;BME280;33317;33.356;-117.184;2023-06-24T07:44:06;99303.71;;;24.68;32.85
47592;BME280;33317;33.356;-117.184;2023-06-24T07:46:35;99302.66;;;24.88;32.86
47592;BME280;33317;33.356;-117.184;2023-06-24T07:49:03;99299.61;;;24.86;32.59
47592;BME280;33317;33.356;-117.184;2023-06-24T07:51:31;99292.53;;;24.41;32.65
47592;BME280;33317;33.356;-117.184;2023-06-24T07:54:00;99295.22;;;24.52;32.62
47592;BME280;33317;33.356;-117.184;2023-06-24T07:56:28;99299.27;;;24.76;32.69
47592;BME280;33317;33.356;-117.184;2023-06-24T07:58:56;99292.72;;;24.58;32.83
47592;BME280;33317;33.356;-117.184;2023-06-24T08:01:25;99285.62;;;24.38;32.71
47592;BME280;33317;33.356;-117.184;2023-06-24T08:03:54;99283.99;;;24.14;32.95
47592;BME280;33317;33.356;-117.184;2023-06-24T08:06:22;99279.03;;;24.80;32.87
47592;BME280;33317;33.356;-117.184;2023-06-24T08:08:50;99272.99;;;24.55;32.92
47592;BME280;33317;33.356;-117.184;2023-06-24T08:11:19;99275.29;;;24.37;33.20
47592;BME280;33317;33.356;-117.184;2023-06-24T08:13:47;99277.21;;;24.50;32.99
47592;BME280;33317;33.356;-117.184;2023-06-24T08:16:17;99280.66;;;24.28;33.25
47592;BME280;33317;33.356;-117.184;2023-06-24T08:18:45;99282.23;;;24.26;33.26
47592;BME280;33317;33.356;-117.184;2023-06-24T08:21:13;99286.51;;;24.02;33.26
47592;BME280;33317;33.356;-117.184;2023-06-24T08:23:42;99281.73;;;24.25;33.23
47592;BME280;33317;33.356;-117.184;2023-06-24T08:26:10;99274.98;;;23.81;33.42
47592;BME280;33317;33.356;-117.184;2023-06-24T08:28:38;99277.56;;;24.11;33.07
47592;BME280;33317;33.356;-117.184;2023-06-24T08:31:06;99279.67;;;23.96;33.56
47592;BME280;33317;33.356;-117.184;2023-06-24T08:33:35;99282.43;;;24.21;33.46
47592;BME280;33317;33.356;-117.184;2023-06-24T08:36:03;99277.30;;;24.17;33.24
47592;BME280;33317;33.356;-117.184;2023-06-24T08:38:31;99275.97;;;24.31;33.32
47592;BME280;33317;33.356;-117.184;2023-06-24T08:41:00;99279.75;;;24.50;33.09
47592;BME280;33317;33.356;-117.184;2023-06-24T08:43:28;99279.07;;;24.93;32.56
47592;BME280;33317;33.356;-117.184;2023-06-24T08:45:57;99277.39;;;24.59;32.66
47592;BME280;33317;33.356;-117.184;2023-06-24T08:48:26;99281.08;;;24.28;33.01
47592;BME280;33317;33.356;-117.184;2023-06-24T08:50:57;99280.20;;;24.65;32.86
47592;BME280;33317;33.356;-117.184;2023-06-24T08:53:26;99283.13;;;24.34;32.94
47592;BME280;33317;33.356;-117.184;2023-06-24T08:55:56;99284.10;;;24.18;33.05
47592;BME280;33317;33.356;-117.184;2023-06-24T08:58:26;99285.86;;;24.84;32.64
47592;BME280;33317;33.356;-117.184;2023-06-24T09:00:54;99284.40;;;24.37;33.23
47592;BME280;33317;33.356;-117.184;2023-06-24T09:03:23;99295.00;;;23.87;33.56
47592;BME280;33317;33.356;-117.184;2023-06-24T09:05:51;99295.71;;;24.30;33.35
47592;BME280;33317;33.356;-117.184;2023-06-24T09:08:20;99297.08;;;23.74;34.05
47592;BME280;33317;33.356;-117.184;2023-06-24T09:10:54;99294.03;;;24.01;33.72
47592;BME280;33317;33.356;-117.184;2023-06-24T09:13:33;99280.15;;;24.45;33.25
47592;BME280;33317;33.356;-117.184;2023-06-24T09:16:12;99266.01;;;23.83;33.68
47592;BME280;33317;33.356;-117.184;2023-06-24T09:18:40;99261.92;;;24.20;33.39
47592;BME280;33317;33.356;-117.184;2023-06-24T09:21:11;99271.17;;;23.99;33.70
47592;BME280;33317;33.356;-117.184;2023-06-24T09:23:39;99267.04;;;24.24;33.36
47592;BME280;33317;33.356;-117.184;2023-06-24T09:26:11;99262.98;;;23.67;33.78
47592;BME280;33317;33.356;-117.184;2023-06-24T09:28:39;99263.50;;;23.79;33.86
47592;BME280;33317;33.356;-117.184;2023-06-24T09:31:08;99262.29;;;24.33;33.25
47592;BME280;33317;33.356;-117.184;2023-06-24T09:33:37;99270.15;;;23.72;33.70
47592;BME280;33317;33.356;-117.184;2023-06-24T09:36:07;99277.99;;;23.89;33.61
47592;BME280;33317;33.356;-117.184;2023-06-24T09:38:41;99276.27;;;24.23;33.24
47592;BME280;33317;33.356;-117.184;2023-06-24T09:41:10;99277.92;;;24.21;33.19
47592;BME280;33317;33.356;-117.184;2023-06-24T09:43:40;99277.60;;;23.92;33.56
47592;BME280;33317;33.356;-117.184;2023-06-24T09:46:09;99264.05;;;24.03;33.17
47592;BME280;33317;33.356;-117.184;2023-06-24T09:48:37;99259.58;;;24.22;33.22
47592;BME280;33317;33.356;-117.184;2023-06-24T09:51:05;99256.74;;;24.03;33.38
47592;BME280;33317;33.356;-117.184;2023-06-24T09:53:35;99256.11;;;23.75;33.71
47592;BME280;33317;33.356;-117.184;2023-06-24T09:56:07;99259.49;;;23.50;33.69
47592;BME280;33317;33.356;-117.184;2023-06-24T09:58:36;99264.76;;;23.81;33.74
47592;BME280;33317;33.356;-117.184;2023-06-24T10:01:06;99264.49;;;23.64;33.80
47592;BME280;33317;33.356;-117.184;2023-06-24T10:03:36;99264.43;;;23.54;34.08
47592;BME280;33317;33.356;-117.184;2023-06-24T10:06:05;99264.52;;;23.77;33.97
47592;BME280;33317;33.356;-117.184;2023-06-24T10:08:35;99263.98;;;23.49;34.02
47592;BME280;33317;33.356;-117.184;2023-06-24T10:11:03;99262.94;;;23.56;33.95
47592;BME280;33317;33.356;-117.184;2023-06-24T10:13:31;99263.27;;;23.66;33.95
47592;BME280;33317;33.356;-117.184;2023-06-24T10:16:00;99260.90;;;23.36;34.23
47592;BME280;33317;33.356;-117.184;2023-06-24T10:18:38;99256.24;;;23.08;34.26
47592;BME280;33317;33.356;-117.184;2023-06-24T10:21:08;99246.69;;;23.34;34.30
47592;BME280;33317;33.356;-117.184;2023-06-24T10:23:41;99241.61;;;23.01;34.65
47592;BME280;33317;33.356;-117.184;2023-06-24T10:26:21;99241.56;;;23.65;34.07
47592;BME280;33317;33.356;-117.184;2023-06-24T10:29:32;99241.97;;;23.46;33.95
47592;BME280;33317;33.356;-117.184;2023-06-24T10:32:03;99250.69;;;23.50;34.04
47592;BME280;33317;33.356;-117.184;2023-06-24T10:34:34;99254.03;;;23.65;33.85
47592;BME280;33317;33.356;-117.184;2023-06-24T10:37:03;99253.06;;;23.66;33.99
47592;BME280;33317;33.356;-117.184;2023-06-24T10:39:42;99256.68;;;23.59;34.06
47592;BME280;33317;33.356;-117.184;2023-06-24T10:42:45;99255.96;;;23.35;34.11
47592;BME280;33317;33.356;-117.184;2023-06-24T10:45:18;99255.41;;;23.70;33.94
47592;BME280;33317;33.356;-117.184;2023-06-24T10:47:48;99251.83;;;23.61;33.70
47592;BME280;33317;33.356;-117.184;2023-06-24T10:50:18;99251.09;;;23.51;34.20
47592;BME280;33317;33.356;-117.184;2023-06-24T10:52:49;99249.97;;;23.48;34.11
47592;BME280;33317;33.356;-117.184;2023-06-24T10:55:18;99248.24;;;23.79;33.77
47592;BME280;33317;33.356;-117.184;2023-06-24T10:57:47;99252.64;;;23.30;34.09
47592;BME280;33317;33.356;-117.184;2023-06-24T11:00:16;99260.48;;;23.57;34.09
47592;BME280;33317;33.356;-117.184;2023-06-24T11:02:45;99262.29;;;23.20;34.51
47592;BME280;33317;33.356;-117.184;2023-06-24T11:05:13;99260.40;;;23.40;33.83
47592;BME280;33317;33.356;-117.184;2023-06-24T11:07:41;99265.79;;;22.98;34.68
47592;BME280;33317;33.356;-117.184;2023-06-24T11:10:13;99262.06;;;23.04;34.66
47592;BME280;33317;33.356;-117.184;2023-06-24T11:12:42;99259.45;;;23.12;34.46
47592;BME280;33317;33.356;-117.184;2023-06-24T11:15:12;99260.64;;;22.75;34.72
47592;BME280;33317;33.356;-117.184;2023-06-24T11:17:41;99259.03;;;22.88;34.52
47592;BME280;33317;33.356;-117.184;2023-06-24T11:20:10;99264.41;;;22.93;34.77
47592;BME280;33317;33.356;-117.184;2023-06-24T11:22:40;99271.55;;;23.19;34.36
47592;BME280;33317;33.356;-117.184;2023-06-24T11:25:15;99270.32;;;23.12;34.45
47592;BME280;33317;33.356;-117.184;2023-06-24T11:27:44;99268.40;;;22.96;34.21
47592;BME280;33317;33.356;-117.184;2023-06-24T11:30:13;99271.31;;;23.48;34.18
47592;BME280;33317;33.356;-117.184;2023-06-24T11:32:43;99273.91;;;23.08;34.14
47592;BME280;33317;33.356;-117.184;2023-06-24T11:35:12;99279.37;;;23.59;34.08
47592;BME280;33317;33.356;-117.184;2023-06-24T11:37:42;99279.81;;;23.33;33.98
47592;BME280;33317;33.356;-117.184;2023-06-24T11:40:11;99276.87;;;22.87;34.56
47592;BME280;33317;33.356;-117.184;2023-06-24T11:42:41;99269.84;;;22.96;34.36
47592;BME280;33317;33.356;-117.184;2023-06-24T11:45:12;99268.11;;;23.37;34.41
47592;BME280;33317;33.356;-117.184;2023-06-24T11:47:40;99273.25;;;23.24;34.51
47592;BME280;33317;33.356;-117.184;2023-06-24T11:50:09;99272.86;;;23.01;34.31
47592;BME280;33317;33.356;-117.184;2023-06-24T11:52:40;99275.91;;;22.86;34.62
47592;BME280;33317;33.356;-117.184;2023-06-24T11:55:19;99279.53;;;22.73;35.11
47592;BME280;33317;33.356;-117.184;2023-06-24T11:57:50;99287.77;;;22.75;34.71
47592;BME280;33317;33.356;-117.184;2023-06-24T12:00:21;99286.58;;;22.84;34.57
47592;BME280;33317;33.356;-117.184;2023-06-24T12:02:52;99287.87;;;23.26;34.45
47592;BME280;33317;33.356;-117.184;2023-06-24T12:05:23;99291.06;;;23.01;34.77
47592;BME280;33317;33.356;-117.184;2023-06-24T12:07:57;99298.33;;;22.83;34.66
47592;BME280;33317;33.356;-117.184;2023-06-24T12:10:25;99307.38;;;22.71;34.74
47592;BME280;33317;33.356;-117.184;2023-06-24T12:12:53;99313.29;;;23.05;34.48
47592;BME280;33317;33.356;-117.184;2023-06-24T12:15:23;99313.09;;;22.82;34.98
47592;BME280;33317;33.356;-117.184;2023-06-24T12:17:51;99319.20;;;22.97;34.73
47592;BME280;33317;33.356;-117.184;2023-06-24T12:20:20;99323.38;;;23.09;34.44
47592;BME280;33317;33.356;-117.184;2023-06-24T12:22:49;99325.96;;;23.12;34.09
47592;BME280;33317;33.356;-117.184;2023-06-24T12:25:18;99334.48;;;22.76;34.39
47592;BME280;33317;33.356;-117.184;2023-06-24T12:27:45;99335.66;;;22.54;34.63
47592;BME280;33317;33.356;-117.184;2023-06-24T12:30:14;99334.08;;;23.12;34.27
47592;BME280;33317;33.356;-117.184;2023-06-24T12:32:42;99334.41;;;23.25;34.01
47592;BME280;33317;33.356;-117.184;2023-06-24T12:35:10;99337.97;;;23.18;34.00
47592;BME280;33317;33.356;-117.184;2023-06-24T12:37:39;99341.61;;;22.88;34.43
47592;BME280;33317;33.356;-117.184;2023-06-24T12:40:08;99347.18;;;22.78;34.38
47592;BME280;33317;33.356;-117.184;2023-06-24T12:42:37;99348.09;;;22.75;34.71